createdAt,value
2019-04-06T00:01:58.472Z,81.60
2019-04-06T00:04:26.434Z,81.60
2019-04-06T00:07:13.693Z,82.80
2019-04-06T00:09:46.781Z,83.30
2019-04-06T00:12:14.634Z,81.60
2019-04-06T00:14:42.386Z,81.60
2019-04-06T00:17:10.193Z,81.00
2019-04-06T00:19:37.927Z,81.60
2019-04-06T00:22:05.716Z,80.50
2019-04-06T00:24:33.748Z,80.30
2019-04-06T00:27:21.058Z,79.90
2019-04-06T00:29:53.921Z,79.00
2019-04-06T00:32:31.912Z,79.00
2019-04-06T00:34:59.714Z,79.20
2019-04-06T00:37:27.612Z,80.00
2019-04-06T00:39:55.656Z,80.30
2019-04-06T00:42:23.433Z,81.00
2019-04-06T00:44:51.321Z,81.60
2019-04-06T00:47:19.098Z,81.60
2019-04-06T00:49:46.998Z,81.60
2019-04-06T00:52:14.800Z,81.60
2019-04-06T00:54:42.635Z,82.50
2019-04-06T00:57:10.457Z,81.70
2019-04-06T00:59:38.223Z,80.70
2019-04-06T01:02:09.911Z,79.90
2019-04-06T01:04:37.674Z,80.60
2019-04-06T01:07:05.514Z,81.70
2019-04-06T01:09:33.329Z,81.20
2019-04-06T01:12:01.131Z,81.60
2019-04-06T01:14:28.862Z,81.60
2019-04-06T01:16:56.598Z,80.80
2019-04-06T01:19:24.384Z,80.80
2019-04-06T01:21:52.227Z,80.20
2019-04-06T01:24:19.986Z,79.90
2019-04-06T01:26:47.762Z,79.80
2019-04-06T01:29:15.601Z,79.60
2019-04-06T01:31:43.785Z,79.70
2019-04-06T01:34:11.634Z,80.00
2019-04-06T01:36:39.436Z,79.90
2019-04-06T01:39:07.282Z,80.80
2019-04-06T01:41:35.280Z,80.10
2019-04-06T01:44:03.116Z,80.50
2019-04-06T01:46:30.917Z,80.50
2019-04-06T01:48:58.692Z,80.40
2019-04-06T01:51:26.586Z,80.80
2019-04-06T01:53:54.342Z,81.40
2019-04-06T01:56:22.101Z,80.80
2019-04-06T01:58:49.862Z,81.70
2019-04-06T02:01:31.362Z,81.80
2019-04-06T02:03:59.138Z,81.20
2019-04-06T02:06:26.883Z,80.40
2019-04-06T02:08:54.757Z,80.50
2019-04-06T02:11:22.555Z,81.70
2019-04-06T02:13:50.268Z,81.70
2019-04-06T02:16:18.063Z,81.60
2019-04-06T02:18:45.780Z,81.70
2019-04-06T02:21:13.620Z,81.00
2019-04-06T02:23:41.444Z,81.80
2019-04-06T02:26:09.351Z,81.70
2019-04-06T02:28:37.171Z,81.70
2019-04-06T02:31:16.241Z,81.80
2019-04-06T02:33:57.609Z,81.80
2019-04-06T02:36:45.135Z,81.80
2019-04-06T02:39:35.378Z,81.70
2019-04-06T02:42:10.421Z,81.80
2019-04-06T02:44:38.213Z,82.60
2019-04-06T02:47:05.998Z,81.80
2019-04-06T02:49:33.751Z,81.70
2019-04-06T02:52:01.591Z,81.60
2019-04-06T02:54:29.430Z,81.70
2019-04-06T02:56:57.274Z,81.80
2019-04-06T02:59:25.135Z,81.80
2019-04-06T03:01:52.933Z,81.70
2019-04-06T03:04:20.740Z,81.70
2019-04-06T03:06:48.556Z,81.60
2019-04-06T03:09:16.318Z,81.60
2019-04-06T03:11:44.182Z,81.60
2019-04-06T03:14:11.976Z,81.60
2019-04-06T03:16:39.781Z,81.50
2019-04-06T03:19:07.780Z,82.00
2019-04-06T03:21:36.002Z,83.20
2019-04-06T03:24:03.878Z,82.80
2019-04-06T03:26:31.669Z,82.50
2019-04-06T03:28:59.459Z,83.70
2019-04-06T03:31:28.699Z,82.50
2019-04-06T03:33:56.719Z,81.70
2019-04-06T03:36:24.566Z,82.30
2019-04-06T03:38:52.560Z,82.70
2019-04-06T03:41:20.415Z,83.10
2019-04-06T03:43:48.182Z,82.60
2019-04-06T03:46:15.947Z,83.60
2019-04-06T03:48:43.707Z,83.70
2019-04-06T03:51:12.076Z,83.70
2019-04-06T03:53:40.069Z,83.80
2019-04-06T03:56:09.708Z,84.80
2019-04-06T03:58:37.521Z,84.40
2019-04-06T04:01:05.420Z,84.20
2019-04-06T04:03:33.337Z,84.00
2019-04-06T04:06:01.118Z,84.60
2019-04-06T04:08:28.833Z,84.50
2019-04-06T04:10:56.991Z,84.40
2019-04-06T04:13:25.415Z,84.90
2019-04-06T04:15:56.398Z,86.20
2019-04-06T04:18:22.824Z,86.40
2019-04-06T04:20:50.823Z,85.50
2019-04-06T04:23:18.751Z,85.00
2019-04-06T04:25:46.759Z,85.40
2019-04-06T04:28:14.517Z,84.90
2019-04-06T04:30:42.347Z,85.10
2019-04-06T04:33:10.155Z,85.40
2019-04-06T04:35:38.227Z,85.90
2019-04-06T04:38:06.102Z,85.20
2019-04-06T04:40:33.871Z,84.90
2019-04-06T04:43:01.681Z,84.10
2019-04-06T04:45:29.466Z,84.40
2019-04-06T04:47:57.272Z,83.80
2019-04-06T04:50:25.167Z,83.30
2019-04-06T04:52:52.961Z,83.30
2019-04-06T04:55:20.727Z,83.20
2019-04-06T04:57:48.577Z,83.40
2019-04-06T05:00:16.680Z,83.60
2019-04-06T05:02:44.489Z,83.20
2019-04-06T05:05:13.040Z,82.90
2019-04-06T05:07:40.787Z,83.10
2019-04-06T05:10:09.759Z,82.30
2019-04-06T05:12:37.551Z,82.30
2019-04-06T05:15:08.252Z,81.80
2019-04-06T05:17:36.244Z,81.80
2019-04-06T05:20:06.014Z,81.90
2019-04-06T05:22:33.783Z,81.90
2019-04-06T05:25:01.584Z,81.90
2019-04-06T05:27:29.347Z,81.70
2019-04-06T05:29:57.151Z,81.70
2019-04-06T05:32:24.943Z,81.60
2019-04-06T05:34:52.732Z,81.60
2019-04-06T05:37:20.546Z,81.60
2019-04-06T05:39:48.375Z,81.70
2019-04-06T05:42:16.283Z,81.80
2019-04-06T05:44:44.148Z,81.80
2019-04-06T05:47:11.998Z,81.70
2019-04-06T05:49:39.753Z,81.70
2019-04-06T05:52:07.526Z,81.80
2019-04-06T05:54:35.483Z,81.80
2019-04-06T05:57:03.492Z,81.80
2019-04-06T05:59:31.368Z,81.60
2019-04-06T06:01:59.094Z,81.30
2019-04-06T06:04:27.073Z,82.00
2019-04-06T06:06:54.845Z,81.20
2019-04-06T06:09:22.695Z,81.90
2019-04-06T06:11:50.552Z,80.50
2019-04-06T06:14:18.292Z,79.70
2019-04-06T06:16:46.082Z,79.00
2019-04-06T06:19:13.818Z,79.40
2019-04-06T06:21:41.691Z,79.60
2019-04-06T06:24:09.537Z,78.80
2019-04-06T06:26:37.355Z,76.90
2019-04-06T06:29:05.197Z,77.10
2019-04-06T06:31:33.139Z,76.50
2019-04-06T06:34:00.916Z,77.30
2019-04-06T06:36:28.917Z,77.00
2019-04-06T06:38:56.691Z,77.00
2019-04-06T06:41:24.491Z,77.30
2019-04-06T06:43:52.293Z,77.30
2019-04-06T06:46:20.112Z,76.60
2019-04-06T06:48:48.435Z,77.00
2019-04-06T06:51:16.296Z,76.40
2019-04-06T06:53:44.319Z,76.40
2019-04-06T06:56:12.247Z,76.40
2019-04-06T06:58:39.989Z,76.40
2019-04-06T07:01:07.738Z,76.40
2019-04-06T07:03:35.508Z,76.80
2019-04-06T07:06:03.332Z,76.40
2019-04-06T07:08:31.152Z,76.40
2019-04-06T07:10:59.200Z,76.30
2019-04-06T07:13:27.009Z,76.40
2019-04-06T07:15:54.771Z,75.50
2019-04-06T07:18:22.557Z,74.60
2019-04-06T07:20:50.523Z,74.90
2019-04-06T07:23:18.337Z,75.10
2019-04-06T07:25:56.653Z,74.30
2019-04-06T07:28:15.755Z,73.30
2019-04-06T07:30:43.539Z,73.40
2019-04-06T07:33:11.286Z,72.20
2019-04-06T07:35:39.222Z,71.80
2019-04-06T07:38:07.009Z,71.90
2019-04-06T07:41:05.347Z,72.00
2019-04-06T07:43:33.072Z,72.00
2019-04-06T07:46:00.876Z,71.30
2019-04-06T07:48:29.125Z,70.40
2019-04-06T07:51:16.671Z,70.70
2019-04-06T07:53:44.457Z,70.50
2019-04-06T07:56:12.492Z,69.20
2019-04-06T07:58:48.682Z,67.50
2019-04-06T08:01:10.440Z,64.70
2019-04-06T08:03:38.243Z,64.40
2019-04-06T08:06:06.047Z,64.00
2019-04-06T08:08:33.809Z,63.60
2019-04-06T08:11:01.585Z,63.20
2019-04-06T08:13:29.371Z,59.90
2019-04-06T08:15:57.187Z,58.70
2019-04-06T08:18:24.942Z,57.20
2019-04-06T08:21:00.342Z,54.70
2019-04-06T08:23:28.179Z,50.90
2019-04-06T08:25:56.363Z,47.40
2019-04-06T08:28:24.231Z,45.60
2019-04-06T08:30:52.018Z,40.80
2019-04-06T08:33:19.831Z,39.10
2019-04-06T08:35:47.609Z,35.90
2019-04-06T08:38:15.471Z,33.00
2019-04-06T08:40:43.286Z,32.70
2019-04-06T08:43:11.057Z,30.40
2019-04-06T08:45:38.860Z,29.30
2019-04-06T08:48:06.629Z,29.40
2019-04-06T08:50:34.779Z,26.90
2019-04-06T08:53:02.514Z,26.90
2019-04-06T08:55:30.747Z,26.50
2019-04-06T08:57:58.514Z,26.10
2019-04-06T09:00:31.764Z,25.70
2019-04-06T09:02:59.515Z,24.60
2019-04-06T09:05:27.339Z,24.60
2019-04-06T09:07:55.128Z,24.30
2019-04-06T09:10:23.164Z,23.90
2019-04-06T09:12:50.927Z,21.80
2019-04-06T09:15:18.708Z,24.20
2019-04-06T09:17:46.532Z,26.50
2019-04-06T09:20:14.505Z,26.20
2019-04-06T09:22:42.292Z,25.50
2019-04-06T09:25:10.249Z,24.00
2019-04-06T09:27:38.049Z,24.20
2019-04-06T09:30:06.322Z,23.10
2019-04-06T09:32:34.109Z,22.10
2019-04-06T09:35:01.938Z,22.10
2019-04-06T09:37:29.688Z,22.00
2019-04-06T09:39:57.497Z,22.10
2019-04-06T09:42:25.226Z,22.10
2019-04-06T09:44:58.645Z,21.10
2019-04-06T09:47:34.134Z,21.40
2019-04-06T09:50:20.551Z,21.60
2019-04-06T09:53:08.858Z,20.70
2019-04-06T09:55:43.274Z,20.90
2019-04-06T09:58:33.481Z,19.90
2019-04-06T10:01:37.289Z,20.00
2019-04-06T10:04:16.509Z,18.30
2019-04-06T10:07:06.680Z,18.60
2019-04-06T10:09:48.345Z,18.40
2019-04-06T10:12:29.087Z,20.60
2019-04-06T10:15:35.036Z,21.80
2019-04-06T10:18:13.718Z,22.80
2019-04-06T10:20:59.741Z,21.90
2019-04-06T10:23:49.930Z,21.20
2019-04-06T10:26:52.714Z,20.80
2019-04-06T10:29:50.253Z,20.80
2019-04-06T10:32:37.849Z,19.00
2019-04-06T10:35:17.932Z,18.80
2019-04-06T10:37:55.019Z,19.20
2019-04-06T10:40:29.963Z,18.10
2019-04-06T10:43:21.070Z,17.20
2019-04-06T10:46:23.456Z,18.80
2019-04-06T10:49:13.893Z,20.60
2019-04-06T10:52:01.291Z,22.10
2019-04-06T10:54:47.271Z,21.10
2019-04-06T10:57:29.431Z,19.20
2019-04-06T11:00:11.950Z,18.10
2019-04-06T11:02:49.284Z,18.80
2019-04-06T11:05:39.617Z,18.70
2019-04-06T11:08:33.181Z,20.20
2019-04-06T11:11:20.814Z,20.80
2019-04-06T11:14:20.313Z,20.50
2019-04-06T11:17:06.214Z,20.90
2019-04-06T11:19:46.434Z,20.20
2019-04-06T11:22:36.566Z,19.10
2019-04-06T11:25:24.361Z,19.00
2019-04-06T11:28:14.571Z,19.10
2019-04-06T11:31:03.253Z,17.80
2019-04-06T11:33:47.721Z,20.00
2019-04-06T11:36:31.060Z,20.50
2019-04-06T11:39:37.016Z,22.10
2019-04-06T11:42:14.324Z,23.80
2019-04-06T11:44:51.766Z,23.20
2019-04-06T11:47:57.463Z,22.60
2019-04-06T11:51:05.277Z,22.50
2019-04-06T11:54:07.911Z,23.00
2019-04-06T11:57:04.450Z,25.30
2019-04-06T11:59:52.451Z,27.10
2019-04-06T12:02:26.035Z,26.90
2019-04-06T12:05:10.384Z,27.00
2019-04-06T12:08:00.537Z,27.50
2019-04-06T12:10:50.941Z,27.10
2019-04-06T12:13:36.971Z,27.10
2019-04-06T12:16:15.595Z,27.00
2019-04-06T12:19:03.227Z,27.80
2019-04-06T12:21:43.017Z,25.20
2019-04-06T12:24:40.201Z,23.70
2019-04-06T12:27:30.713Z,23.60
2019-04-06T12:30:08.821Z,23.80
2019-04-06T12:33:01.996Z,22.90
2019-04-06T12:35:48.234Z,21.80
2019-04-06T12:38:27.007Z,20.80
2019-04-06T12:41:46.199Z,21.10
2019-04-06T12:44:26.980Z,19.60
2019-04-06T12:47:23.769Z,20.00
2019-04-06T12:50:02.739Z,20.70
2019-04-06T12:52:49.215Z,22.50
2019-04-06T12:55:38.376Z,23.40
2019-04-06T12:58:24.765Z,24.10
2019-04-06T13:01:21.528Z,24.50
2019-04-06T13:04:07.548Z,25.60
2019-04-06T13:07:06.960Z,26.30
2019-04-06T13:09:52.967Z,27.30
2019-04-06T13:12:40.409Z,27.20
2019-04-06T13:15:22.812Z,27.70
2019-04-06T13:18:13.013Z,28.20
2019-04-06T13:21:00.643Z,26.90
2019-04-06T13:23:45.305Z,25.20
2019-04-06T13:26:39.031Z,24.30
2019-04-06T13:29:15.734Z,23.10
2019-04-06T13:32:09.252Z,22.20
2019-04-06T13:35:14.712Z,20.90
2019-04-06T13:38:20.132Z,20.90
2019-04-06T13:41:06.537Z,22.50
2019-04-06T13:43:43.451Z,22.30
2019-04-06T13:46:21.860Z,22.80
2019-04-06T13:49:09.808Z,23.30
2019-04-06T13:51:57.422Z,24.10
2019-04-06T13:54:50.747Z,24.50
2019-04-06T13:57:31.334Z,25.20
2019-04-06T14:00:15.345Z,25.80
2019-04-06T14:02:53.685Z,26.20
2019-04-06T14:05:50.091Z,24.90
2019-04-06T14:08:42.366Z,25.30
2019-04-06T14:11:29.848Z,25.40
2019-04-06T14:14:16.021Z,26.00
2019-04-06T14:17:06.550Z,26.40
2019-04-06T14:19:47.548Z,27.50
2019-04-06T14:22:24.696Z,26.20
2019-04-06T14:25:12.152Z,26.80
2019-04-06T14:28:09.408Z,26.80
2019-04-06T14:31:09.739Z,26.60
2019-04-06T14:33:55.438Z,26.50
2019-04-06T14:36:47.302Z,27.70
2019-04-06T14:39:46.883Z,28.10
2019-04-06T14:42:52.853Z,27.30
2019-04-06T14:45:58.744Z,26.90
2019-04-06T14:48:46.496Z,26.90
2019-04-06T14:51:25.891Z,26.80
2019-04-06T14:54:16.221Z,26.80
2019-04-06T14:56:56.125Z,26.80
2019-04-06T14:59:42.323Z,26.80
2019-04-06T15:02:39.129Z,26.90
2019-04-06T15:05:22.492Z,26.70
2019-04-06T15:08:15.445Z,27.00
2019-04-06T15:11:01.928Z,27.10
2019-04-06T15:13:38.596Z,27.60
2019-04-06T15:16:29.041Z,27.70
2019-04-06T15:19:11.507Z,27.20
2019-04-06T15:22:09.152Z,27.10
2019-04-06T15:24:49.967Z,27.10
2019-04-06T15:27:31.698Z,26.90
2019-04-06T15:30:34.665Z,26.90
2019-04-06T15:33:31.170Z,27.20
2019-04-06T15:36:27.494Z,25.90
2019-04-06T15:39:23.892Z,25.10
2019-04-06T15:42:02.871Z,24.30
2019-04-06T15:44:41.541Z,24.70
2019-04-06T15:47:35.310Z,24.50
2019-04-06T15:50:28.403Z,24.40
2019-04-06T15:53:02.699Z,24.10
2019-04-06T15:55:50.196Z,23.90
2019-04-06T15:58:22.661Z,24.00
2019-04-06T16:00:59.474Z,24.50
2019-04-06T16:03:52.683Z,24.90
2019-04-06T16:06:38.733Z,25.20
2019-04-06T16:09:38.119Z,25.00
2019-04-06T16:12:50.812Z,25.70
2019-04-06T16:15:26.196Z,25.80
2019-04-06T16:18:09.921Z,26.20
2019-04-06T16:21:06.482Z,27.00
2019-04-06T16:23:43.954Z,27.00
2019-04-06T16:26:19.757Z,27.60
2019-04-06T16:28:58.696Z,27.10
2019-04-06T16:31:47.327Z,27.40
2019-04-06T16:34:43.827Z,27.60
2019-04-06T16:37:27.112Z,28.10
2019-04-06T16:40:16.004Z,28.50
2019-04-06T16:43:06.943Z,29.10
2019-04-06T16:45:47.615Z,29.40
2019-04-06T16:48:33.641Z,30.20
2019-04-06T16:51:30.131Z,30.70
2019-04-06T16:54:16.383Z,30.50
2019-04-06T16:57:02.686Z,30.80
2019-04-06T16:59:41.871Z,31.20
2019-04-06T17:02:35.326Z,31.50
2019-04-06T17:05:16.051Z,31.70
2019-04-06T17:08:10.828Z,31.90
2019-04-06T17:10:51.734Z,32.00
2019-04-06T17:13:39.877Z,32.20
2019-04-06T17:16:24.029Z,32.10
2019-04-06T17:18:58.256Z,32.40
2019-04-06T17:21:40.235Z,33.00
2019-04-06T17:24:26.774Z,34.10
2019-04-06T17:27:03.977Z,34.40
2019-04-06T17:29:49.698Z,34.20
2019-04-06T17:32:36.023Z,34.10
2019-04-06T17:35:09.340Z,33.90
2019-04-06T17:38:08.924Z,34.80
2019-04-06T17:40:53.637Z,35.10
2019-04-06T17:43:53.347Z,35.30
2019-04-06T17:46:39.343Z,35.70
2019-04-06T17:49:42.078Z,35.70
2019-04-06T17:52:26.680Z,36.00
2019-04-06T17:55:12.523Z,36.10
2019-04-06T17:57:45.928Z,35.70
2019-04-06T18:00:32.000Z,36.50
2019-04-06T18:03:22.500Z,36.10
2019-04-06T18:06:09.049Z,36.70
2019-04-06T18:09:06.456Z,36.80
2019-04-06T18:11:54.528Z,37.00
2019-04-06T18:14:22.430Z,37.80
2019-04-06T18:16:50.520Z,38.00
2019-04-06T18:19:18.578Z,38.50
2019-04-06T18:21:46.342Z,39.20
2019-04-06T18:24:14.596Z,39.30
2019-04-06T18:26:42.754Z,40.00
2019-04-06T18:29:10.805Z,40.70
2019-04-06T18:32:03.953Z,40.70
2019-04-06T18:34:32.153Z,40.70
2019-04-06T18:37:22.374Z,41.10
2019-04-06T18:39:56.894Z,42.00
2019-04-06T18:42:27.900Z,42.20
2019-04-06T18:44:55.659Z,42.50
2019-04-06T18:47:23.469Z,43.00
2019-04-06T18:49:52.467Z,43.50
2019-04-06T18:52:20.471Z,43.30
2019-04-06T18:54:48.373Z,43.20
2019-04-06T18:57:16.420Z,44.70
2019-04-06T18:59:44.793Z,45.70
2019-04-06T19:02:13.142Z,46.00
2019-04-06T19:04:41.055Z,47.20
2019-04-06T19:07:09.154Z,47.90
2019-04-06T19:09:37.025Z,47.70
2019-04-06T19:12:05.341Z,47.60
2019-04-06T19:14:34.253Z,47.90
2019-04-06T19:17:02.452Z,48.40
2019-04-06T19:19:30.782Z,48.30
2019-04-06T19:21:59.067Z,48.10
2019-04-06T19:24:27.175Z,48.30
2019-04-06T19:27:15.656Z,48.50
2019-04-06T19:29:34.770Z,49.10
2019-04-06T19:32:02.917Z,48.70
2019-04-06T19:34:31.471Z,49.00
2019-04-06T19:36:59.256Z,49.00
2019-04-06T19:39:27.389Z,49.30
2019-04-06T19:41:55.531Z,49.50
2019-04-06T19:44:24.911Z,49.70
2019-04-06T19:46:52.963Z,50.00
2019-04-06T19:49:20.845Z,49.40
2019-04-06T19:51:54.441Z,50.50
2019-04-06T19:54:22.394Z,50.60
2019-04-06T19:56:57.557Z,51.10
2019-04-06T19:59:25.467Z,51.60
2019-04-06T20:01:53.666Z,51.50
2019-04-06T20:04:21.831Z,51.50
2019-04-06T20:06:50.451Z,51.70
2019-04-06T20:09:18.661Z,51.50
2019-04-06T20:11:46.600Z,51.50
2019-04-06T20:14:14.648Z,52.50
2019-04-06T20:16:43.060Z,53.00
2019-04-06T20:19:11.155Z,52.80
2019-04-06T20:21:44.044Z,52.60
2019-04-06T20:24:11.869Z,52.70
2019-04-06T20:26:40.084Z,54.10
2019-04-06T20:29:08.020Z,54.00
2019-04-06T20:31:36.245Z,54.60
2019-04-06T20:34:05.312Z,55.60
2019-04-06T20:36:34.034Z,56.10
2019-04-06T20:39:04.104Z,55.40
2019-04-06T20:41:37.094Z,57.10
2019-04-06T20:44:05.416Z,57.10
2019-04-06T20:46:34.027Z,58.00
2019-04-06T20:49:02.167Z,58.10
2019-04-06T20:51:30.217Z,58.30
2019-04-06T20:53:58.009Z,58.50
2019-04-06T20:56:26.100Z,59.60
2019-04-06T20:58:54.193Z,60.50
2019-04-06T21:01:27.684Z,61.70
2019-04-06T21:04:01.514Z,61.60
2019-04-06T21:06:25.574Z,61.50
2019-04-06T21:08:53.771Z,61.60
2019-04-06T21:11:21.666Z,62.00
2019-04-06T21:13:49.580Z,62.20
2019-04-06T21:16:17.918Z,62.40
2019-04-06T21:18:45.823Z,62.60
2019-04-06T21:21:13.624Z,63.20
2019-04-06T21:23:41.873Z,64.40
2019-04-06T21:26:10.848Z,64.30
2019-04-06T21:28:39.030Z,63.90
2019-04-06T21:31:07.706Z,64.30
2019-04-06T21:33:37.486Z,65.20
2019-04-06T21:36:06.012Z,64.80
2019-04-06T21:38:34.361Z,65.40
2019-04-06T21:41:02.834Z,66.00
2019-04-06T21:43:31.126Z,65.70
2019-04-06T21:45:59.959Z,66.40
2019-04-06T21:48:27.931Z,66.20
2019-04-06T21:51:02.894Z,66.90
2019-04-06T21:53:31.019Z,67.40
2019-04-06T21:56:03.226Z,67.40
2019-04-06T21:58:29.026Z,67.20
2019-04-06T22:00:57.871Z,67.50
2019-04-06T22:03:25.967Z,68.10
2019-04-06T22:05:54.079Z,68.80
2019-04-06T22:08:21.949Z,68.80
2019-04-06T22:10:50.145Z,69.10
2019-04-06T22:13:18.612Z,68.20
2019-04-06T22:15:47.313Z,69.40
2019-04-06T22:18:15.471Z,69.50
2019-04-06T22:20:43.859Z,69.80
2019-04-06T22:23:11.984Z,70.50
2019-04-06T22:25:40.132Z,70.90
2019-04-06T22:28:08.838Z,71.00
2019-04-06T22:30:38.337Z,71.50
2019-04-06T22:33:07.017Z,70.80
2019-04-06T22:35:35.002Z,71.30
2019-04-06T22:38:02.971Z,71.90
2019-04-06T22:40:33.507Z,73.20
2019-04-06T22:43:03.048Z,73.00
2019-04-06T22:45:32.280Z,72.90
2019-04-06T22:48:00.394Z,72.60
2019-04-06T22:50:28.130Z,73.20
2019-04-06T22:52:56.150Z,72.70
2019-04-06T22:55:24.221Z,72.60
2019-04-06T22:57:52.203Z,74.90
2019-04-06T23:00:39.881Z,75.60
2019-04-06T23:03:34.303Z,75.30
2019-04-06T23:06:05.477Z,74.90
2019-04-06T23:08:33.866Z,75.10
2019-04-06T23:11:02.545Z,74.80
2019-04-06T23:13:31.254Z,75.40
2019-04-06T23:15:59.652Z,75.60
2019-04-06T23:18:27.532Z,75.60
2019-04-06T23:20:56.498Z,75.30
2019-04-06T23:23:24.679Z,75.80
2019-04-06T23:25:52.870Z,76.00
2019-04-06T23:28:20.820Z,76.40
2019-04-06T23:30:48.930Z,76.30
2019-04-06T23:33:16.780Z,77.30
2019-04-06T23:35:44.948Z,77.20
2019-04-06T23:38:13.282Z,78.10
2019-04-06T23:40:42.060Z,78.00
2019-04-06T23:43:10.022Z,77.70
2019-04-06T23:45:38.080Z,77.80
2019-04-06T23:48:06.083Z,79.00
2019-04-06T23:50:33.931Z,79.00
2019-04-06T23:53:01.692Z,78.70
2019-04-06T23:55:29.970Z,78.70
2019-04-06T23:57:58.076Z,78.40
